KCLI Airport Information

Runway Information
Runway 04 Length 3299 ft width 100 ft
Elevation 822 ft Threshold 0 ft Heading 43
Runway 22 Length 3299 ft Width 100 ft
Elevation 810 ft Threshold 0 ft Heading 223
Runway 09 Length 2000 ft width 170 ft
Elevation 820 ft Threshold 0 ft Heading 88
Runway 27 Length 2000 ft Width 170 ft
Elevation 815 ft Threshold 0 ft Heading 268
Runway 14 Length 4600 ft width 75 ft
Elevation 818 ft Threshold 0 ft Heading 137
Runway 32 Length 4600 ft Width 75 ft
Elevation 814 ft Threshold 0 ft Heading 317
Airport Frequencies
Type A/D Name GREEN BAY Frequency 126.3 MHZ
Type AWOS Name AWOS 3 Frequency 120.675 MHZ
Type UNIC Name CTAF/UNICO Frequency 122.8 MHZ
Airport Navaids
Airport Weather Information & NOTAM
ADDS - METARS form results

(1311 UTC 14 December 2019)
Data provider http://aviationweather.gov/metar/data/
 
METAR text: KCLI 141255Z AUTO 29005KT 3SM BR OVC007 M04/M05 A2972 RMK AO2 T10401050
Conditions at: KCLI (CLINTONVILLE , WI, US) observed 1255 UTC 14 December 2019
Temperature: -4.0°C (25°F)
Dewpoint: -5.0°C (23°F) [RH = 93%]
Pressure (altimeter): 29.72 inches Hg (1006.5 mb)
Winds: from the WNW (290 degrees) at 6 MPH (5 knots; 2.6 m/s)
Visibility: 3 miles ( 5 km)
Ceiling: 700 feet AGL
Clouds: overcast cloud deck at 700 feet AGL
Weather: BR  (mist)

METAR text: KCLI 141235Z AUTO 29004KT 3SM BR OVC005 M04/M05 A2973 RMK AO2 T10401050
Conditions at: KCLI (CLINTONVILLE , WI, US) observed 1235 UTC 14 December 2019
Temperature: -4.0°C (25°F)
Dewpoint: -5.0°C (23°F) [RH = 93%]
Pressure (altimeter): 29.73 inches Hg (1006.9 mb)
Winds: from the WNW (290 degrees) at 5 MPH (4 knots; 2.1 m/s)
Visibility: 3 miles ( 5 km)
Ceiling: 500 feet AGL
Clouds: overcast cloud deck at 500 feet AGL
Weather: BR  (mist)

METAR text: KCLI 141215Z AUTO 28004KT 3SM BR OVC005 M04/M05 A2973 RMK AO2 T10401050
Conditions at: KCLI (CLINTONVILLE , WI, US) observed 1215 UTC 14 December 2019
Temperature: -4.0°C (25°F)
Dewpoint: -5.0°C (23°F) [RH = 93%]
Pressure (altimeter): 29.73 inches Hg (1006.9 mb)
Winds: from the W (280 degrees) at 5 MPH (4 knots; 2.1 m/s)
Visibility: 3 miles ( 5 km)
Ceiling: 500 feet AGL
Clouds: overcast cloud deck at 500 feet AGL
Weather: BR  (mist)